IGO104J VABB-VANP
Flight info
| Callsign | IGO104J |
|---|---|
| Flight time | 1h 8m |
| Altitude | 37000 |
| Route | ANOLI2A AAU G450 NNP |
| Aircraft | A21N/M-SDE2E3FGHIRWXY/LB1 |
Departure
| Time | 2026-05-08 07:07 |
|---|---|
| Airport | Chhatrapati Shivaji Maharaj International Airport (VABB) |
Arrival
| Time | 2026-05-08 08:16 |
|---|---|
| Airport | Dr. Babasaheb Ambedkar International Airport (VANP) |
| Time | Latitude | Longitude | Altitude | Speed | Heading |
|---|---|---|---|---|---|
| 2026-05-08 06:35 | 19.09149 | 72.85359 | 31 ft | 0 kts | 1° |
| 2026-05-08 06:55 | 19.09143 | 72.85359 | 31 ft | 2 kts | 359° |
| 2026-05-08 06:55 | 19.09128 | 72.85355 | 31 ft | 2 kts | 26° |
| 2026-05-08 06:55 | 19.09115 | 72.85348 | 31 ft | 2 kts | 39° |
| 2026-05-08 06:56 | 19.09105 | 72.85336 | 30 ft | 2 kts | 54° |
| 2026-05-08 06:56 | 19.09097 | 72.85322 | 30 ft | 2 kts | 70° |
| 2026-05-08 06:56 | 19.09094 | 72.85307 | 30 ft | 1 kts | 84° |
| 2026-05-08 06:56 | 19.09093 | 72.85300 | 30 ft | 1 kts | 91° |
| 2026-05-08 06:57 | 19.09093 | 72.85297 | 30 ft | 0 kts | 90° |
| 2026-05-08 07:00 | 19.09093 | 72.85299 | 30 ft | 0 kts | 89° |
| 2026-05-08 07:00 | 19.09093 | 72.85304 | 30 ft | 0 kts | 89° |
| 2026-05-08 07:00 | 19.09093 | 72.85316 | 30 ft | 2 kts | 89° |
| 2026-05-08 07:00 | 19.09094 | 72.85336 | 30 ft | 3 kts | 90° |
| 2026-05-08 07:01 | 19.09088 | 72.85373 | 30 ft | 6 kts | 114° |
| 2026-05-08 07:01 | 19.09041 | 72.85403 | 29 ft | 9 kts | 144° |
| 2026-05-08 07:01 | 19.09024 | 72.85483 | 29 ft | 12 kts | 88° |
| 2026-05-08 07:01 | 19.09026 | 72.85584 | 29 ft | 14 kts | 89° |
| 2026-05-08 07:02 | 19.09027 | 72.85699 | 29 ft | 16 kts | 89° |
| 2026-05-08 07:02 | 19.09029 | 72.85822 | 29 ft | 17 kts | 89° |
| 2026-05-08 07:02 | 19.09031 | 72.85953 | 32 ft | 17 kts | 89° |
| 2026-05-08 07:02 | 19.09032 | 72.86084 | 32 ft | 18 kts | 89° |
| 2026-05-08 07:03 | 19.09034 | 72.86225 | 32 ft | 19 kts | 89° |
| 2026-05-08 07:03 | 19.09037 | 72.86371 | 32 ft | 20 kts | 89° |
| 2026-05-08 07:03 | 19.09039 | 72.86526 | 32 ft | 21 kts | 89° |
| 2026-05-08 07:03 | 19.09042 | 72.86691 | 32 ft | 22 kts | 89° |
| 2026-05-08 07:04 | 19.09044 | 72.86858 | 31 ft | 23 kts | 89° |
| 2026-05-08 07:04 | 19.09047 | 72.87031 | 29 ft | 24 kts | 89° |
| 2026-05-08 07:04 | 19.09050 | 72.87212 | 29 ft | 24 kts | 89° |
| 2026-05-08 07:04 | 19.09055 | 72.87397 | 29 ft | 25 kts | 89° |
| 2026-05-08 07:05 | 19.09056 | 72.87583 | 31 ft | 24 kts | 91° |
| 2026-05-08 07:05 | 19.09057 | 72.87764 | 32 ft | 24 kts | 88° |
| 2026-05-08 07:05 | 19.09061 | 72.87938 | 37 ft | 21 kts | 89° |
| 2026-05-08 07:05 | 19.09021 | 72.88047 | 39 ft | 16 kts | 161° |
| 2026-05-08 07:06 | 19.08909 | 72.88036 | 37 ft | 17 kts | 221° |
| 2026-05-08 07:06 | 19.08883 | 72.87907 | 35 ft | 19 kts | 269° |
| 2026-05-08 07:06 | 19.08882 | 72.87704 | 30 ft | 51 kts | 270° |
| 2026-05-08 07:06 | 19.08874 | 72.87073 | 29 ft | 117 kts | 269° |
| 2026-05-08 07:07 | 19.08862 | 72.86018 | 32 ft | 169 kts | 269° |
| 2026-05-08 07:07 | 19.08864 | 72.84701 | 518 ft | 177 kts | 270° |
| 2026-05-08 07:07 | 19.08859 | 72.83388 | 1150 ft | 179 kts | 270° |
| 2026-05-08 07:07 | 19.08837 | 72.82063 | 1805 ft | 178 kts | 270° |
| 2026-05-08 07:08 | 19.08813 | 72.80715 | 2108 ft | 189 kts | 270° |
| 2026-05-08 07:08 | 19.08786 | 72.79273 | 2373 ft | 202 kts | 270° |
| 2026-05-08 07:08 | 19.08758 | 72.77690 | 2594 ft | 221 kts | 270° |
| 2026-05-08 07:08 | 19.08728 | 72.76008 | 2903 ft | 238 kts | 270° |
| 2026-05-08 07:09 | 19.08798 | 72.74161 | 3206 ft | 254 kts | 284° |
| 2026-05-08 07:09 | 19.09619 | 72.72485 | 3584 ft | 265 kts | 314° |
| 2026-05-08 07:09 | 19.11197 | 72.71418 | 4208 ft | 269 kts | 343° |
| 2026-05-08 07:09 | 19.13065 | 72.71313 | 4873 ft | 272 kts | 12° |
| 2026-05-08 07:10 | 19.14761 | 72.72205 | 5538 ft | 277 kts | 39° |
| 2026-05-08 07:10 | 19.16199 | 72.73548 | 6243 ft | 278 kts | 36° |
| 2026-05-08 07:10 | 19.17945 | 72.74390 | 6871 ft | 280 kts | 7° |
| 2026-05-08 07:10 | 19.19888 | 72.74445 | 7588 ft | 281 kts | 359° |
| 2026-05-08 07:11 | 19.21843 | 72.74372 | 8234 ft | 285 kts | 358° |
| 2026-05-08 07:11 | 19.23812 | 72.74274 | 8866 ft | 288 kts | 357° |
| 2026-05-08 07:11 | 19.25812 | 72.74165 | 9501 ft | 292 kts | 357° |
| 2026-05-08 07:11 | 19.27860 | 72.74056 | 10124 ft | 295 kts | 359° |
| 2026-05-08 07:12 | 19.29920 | 72.74329 | 10439 ft | 308 kts | 19° |
| 2026-05-08 07:12 | 19.31806 | 72.75425 | 10827 ft | 318 kts | 39° |
| 2026-05-08 07:12 | 19.33505 | 72.76983 | 11472 ft | 320 kts | 42° |
| 2026-05-08 07:12 | 19.35149 | 72.78569 | 12072 ft | 323 kts | 43° |
| 2026-05-08 07:13 | 19.36834 | 72.80187 | 12661 ft | 326 kts | 42° |
| 2026-05-08 07:13 | 19.38535 | 72.81798 | 13250 ft | 329 kts | 42° |
| 2026-05-08 07:13 | 19.40233 | 72.83393 | 13823 ft | 331 kts | 42° |
| 2026-05-08 07:13 | 19.41972 | 72.85019 | 14394 ft | 334 kts | 41° |
| 2026-05-08 07:14 | 19.43732 | 72.86661 | 14958 ft | 337 kts | 42° |
| 2026-05-08 07:14 | 19.45367 | 72.88437 | 15492 ft | 340 kts | 54° |
| 2026-05-08 07:14 | 19.46516 | 72.90619 | 16025 ft | 342 kts | 70° |
| 2026-05-08 07:14 | 19.47154 | 72.93058 | 16577 ft | 343 kts | 78° |
| 2026-05-08 07:15 | 19.47639 | 72.95519 | 17096 ft | 346 kts | 79° |
| 2026-05-08 07:15 | 19.48119 | 72.98036 | 17611 ft | 349 kts | 78° |
| 2026-05-08 07:15 | 19.48615 | 73.00569 | 18123 ft | 352 kts | 78° |
| 2026-05-08 07:15 | 19.49123 | 73.03099 | 18622 ft | 354 kts | 78° |
| 2026-05-08 07:16 | 19.49644 | 73.05660 | 19115 ft | 357 kts | 78° |
| 2026-05-08 07:16 | 19.50179 | 73.08250 | 19602 ft | 360 kts | 78° |
| 2026-05-08 07:16 | 19.50729 | 73.10844 | 20079 ft | 362 kts | 78° |
| 2026-05-08 07:16 | 19.51282 | 73.13444 | 20548 ft | 365 kts | 78° |
| 2026-05-08 07:17 | 19.51842 | 73.16083 | 21013 ft | 367 kts | 78° |
| 2026-05-08 07:17 | 19.52406 | 73.18743 | 21470 ft | 370 kts | 78° |
| 2026-05-08 07:17 | 19.52968 | 73.21401 | 21917 ft | 372 kts | 78° |
| 2026-05-08 07:17 | 19.53532 | 73.24073 | 22355 ft | 375 kts | 78° |
| 2026-05-08 07:18 | 19.54103 | 73.26781 | 22788 ft | 377 kts | 78° |
| 2026-05-08 07:18 | 19.54677 | 73.29507 | 23215 ft | 380 kts | 78° |
| 2026-05-08 07:18 | 19.55253 | 73.32243 | 23627 ft | 383 kts | 78° |
| 2026-05-08 07:18 | 19.55813 | 73.34998 | 24029 ft | 385 kts | 80° |
| 2026-05-08 07:19 | 19.56240 | 73.37796 | 24423 ft | 387 kts | 83° |
| 2026-05-08 07:19 | 19.56546 | 73.40668 | 24816 ft | 389 kts | 85° |
| 2026-05-08 07:19 | 19.56823 | 73.43496 | 25190 ft | 392 kts | 85° |
| 2026-05-08 07:19 | 19.57102 | 73.46380 | 25561 ft | 394 kts | 85° |
| 2026-05-08 07:20 | 19.57383 | 73.49273 | 25921 ft | 397 kts | 85° |
| 2026-05-08 07:20 | 19.57666 | 73.52170 | 26272 ft | 399 kts | 85° |
| 2026-05-08 07:20 | 19.57950 | 73.55066 | 26613 ft | 401 kts | 85° |
| 2026-05-08 07:20 | 19.58241 | 73.58025 | 26953 ft | 404 kts | 85° |
| 2026-05-08 07:21 | 19.58534 | 73.61023 | 27288 ft | 406 kts | 85° |
| 2026-05-08 07:21 | 19.58826 | 73.64004 | 27615 ft | 408 kts | 84° |
| 2026-05-08 07:21 | 19.59286 | 73.66988 | 27909 ft | 412 kts | 78° |
| 2026-05-08 07:21 | 19.60126 | 73.69893 | 28204 ft | 416 kts | 69° |
| 2026-05-08 07:22 | 19.61349 | 73.72704 | 28522 ft | 419 kts | 64° |
| 2026-05-08 07:22 | 19.62719 | 73.75428 | 28840 ft | 421 kts | 62° |
| 2026-05-08 07:22 | 19.64127 | 73.78162 | 29142 ft | 423 kts | 62° |
| 2026-05-08 07:22 | 19.65551 | 73.80935 | 29444 ft | 425 kts | 62° |
| 2026-05-08 07:23 | 19.66951 | 73.83682 | 29740 ft | 427 kts | 63° |
| 2026-05-08 07:23 | 19.68372 | 73.86485 | 30035 ft | 429 kts | 63° |
| 2026-05-08 07:23 | 19.69801 | 73.89316 | 30326 ft | 431 kts | 63° |
| 2026-05-08 07:23 | 19.71213 | 73.92117 | 30608 ft | 433 kts | 63° |
| 2026-05-08 07:24 | 19.72633 | 73.94936 | 30885 ft | 435 kts | 63° |
| 2026-05-08 07:24 | 19.74081 | 73.97816 | 31162 ft | 437 kts | 63° |
| 2026-05-08 07:24 | 19.75490 | 74.00736 | 31431 ft | 439 kts | 65° |
| 2026-05-08 07:24 | 19.76736 | 74.03710 | 31693 ft | 440 kts | 69° |
| 2026-05-08 07:25 | 19.77853 | 74.06740 | 31952 ft | 442 kts | 70° |
| 2026-05-08 07:25 | 19.78965 | 74.09846 | 32212 ft | 444 kts | 70° |
| 2026-05-08 07:25 | 19.81168 | 74.16025 | 32700 ft | 447 kts | 70° |
| 2026-05-08 07:26 | 19.82283 | 74.19144 | 32939 ft | 449 kts | 70° |
| 2026-05-08 07:26 | 19.83409 | 74.22290 | 33173 ft | 451 kts | 70° |
| 2026-05-08 07:26 | 19.84531 | 74.25424 | 33401 ft | 452 kts | 70° |
| 2026-05-08 07:26 | 19.85665 | 74.28593 | 33645 ft | 454 kts | 70° |
| 2026-05-08 07:27 | 19.86781 | 74.31709 | 33951 ft | 453 kts | 70° |
| 2026-05-08 07:27 | 19.87906 | 74.34853 | 34274 ft | 452 kts | 70° |
| 2026-05-08 07:27 | 19.89040 | 74.38025 | 34592 ft | 451 kts | 70° |
| 2026-05-08 07:27 | 19.90154 | 74.41142 | 34894 ft | 450 kts | 70° |
| 2026-05-08 07:28 | 19.91265 | 74.44252 | 35186 ft | 449 kts | 70° |
| 2026-05-08 07:28 | 19.92374 | 74.47358 | 35438 ft | 449 kts | 70° |
| 2026-05-08 07:28 | 19.93498 | 74.50510 | 35655 ft | 450 kts | 70° |
| 2026-05-08 07:28 | 19.94615 | 74.53643 | 35856 ft | 451 kts | 70° |
| 2026-05-08 07:29 | 19.95725 | 74.56762 | 36053 ft | 451 kts | 70° |
| 2026-05-08 07:29 | 19.96839 | 74.59891 | 36246 ft | 452 kts | 70° |
| 2026-05-08 07:29 | 19.97835 | 74.63087 | 36421 ft | 452 kts | 75° |
| 2026-05-08 07:29 | 19.98553 | 74.66374 | 36581 ft | 453 kts | 81° |
| 2026-05-08 07:30 | 19.98969 | 74.69696 | 36730 ft | 453 kts | 86° |
| 2026-05-08 07:30 | 19.99087 | 74.73110 | 36878 ft | 453 kts | 92° |
| 2026-05-08 07:30 | 19.98903 | 74.76470 | 36930 ft | 453 kts | 97° |
| 2026-05-08 07:31 | 19.97780 | 74.83073 | 36939 ft | 453 kts | 103° |
| 2026-05-08 07:31 | 19.96419 | 74.89651 | 36936 ft | 453 kts | 103° |
| 2026-05-08 07:32 | 19.95072 | 74.96223 | 36931 ft | 454 kts | 103° |
| 2026-05-08 07:32 | 19.93733 | 75.02824 | 36929 ft | 456 kts | 103° |
| 2026-05-08 07:33 | 19.92394 | 75.09436 | 36928 ft | 457 kts | 102° |
| 2026-05-08 07:33 | 19.91050 | 75.16075 | 36927 ft | 458 kts | 102° |
| 2026-05-08 07:34 | 19.89706 | 75.22710 | 36927 ft | 458 kts | 102° |
| 2026-05-08 07:34 | 19.88358 | 75.29333 | 36927 ft | 458 kts | 102° |
| 2026-05-08 07:35 | 19.87435 | 75.36065 | 36928 ft | 458 kts | 93° |
| 2026-05-08 07:35 | 19.87711 | 75.42845 | 36929 ft | 458 kts | 81° |
| 2026-05-08 07:36 | 19.89212 | 75.49466 | 36928 ft | 458 kts | 70° |
| 2026-05-08 07:36 | 19.91487 | 75.55812 | 36928 ft | 458 kts | 68° |
| 2026-05-08 07:37 | 19.93826 | 75.62161 | 36927 ft | 458 kts | 68° |
| 2026-05-08 07:37 | 19.96114 | 75.68461 | 36927 ft | 458 kts | 69° |
| 2026-05-08 07:38 | 19.98412 | 75.74844 | 36928 ft | 458 kts | 69° |
| 2026-05-08 07:38 | 20.00668 | 75.81119 | 36928 ft | 458 kts | 69° |
| 2026-05-08 07:39 | 20.02926 | 75.87398 | 36928 ft | 458 kts | 69° |
| 2026-05-08 07:39 | 20.05204 | 75.93742 | 36928 ft | 458 kts | 69° |
| 2026-05-08 07:40 | 20.07481 | 76.00089 | 36928 ft | 458 kts | 69° |
| 2026-05-08 07:40 | 20.09743 | 76.06403 | 36928 ft | 458 kts | 69° |
| 2026-05-08 07:41 | 20.12021 | 76.12708 | 36928 ft | 458 kts | 69° |
| 2026-05-08 07:41 | 20.14301 | 76.19026 | 36928 ft | 458 kts | 69° |
| 2026-05-08 07:42 | 20.16559 | 76.25330 | 36928 ft | 458 kts | 69° |
| 2026-05-08 07:42 | 20.18800 | 76.31613 | 36928 ft | 458 kts | 69° |
| 2026-05-08 07:43 | 20.21052 | 76.37940 | 36928 ft | 458 kts | 69° |
| 2026-05-08 07:43 | 20.23318 | 76.44315 | 36576 ft | 458 kts | 69° |
| 2026-05-08 07:43 | 20.24446 | 76.47491 | 36326 ft | 458 kts | 69° |
| 2026-05-08 07:44 | 20.25573 | 76.50669 | 36076 ft | 458 kts | 69° |
| 2026-05-08 07:44 | 20.26690 | 76.53818 | 35828 ft | 459 kts | 69° |
| 2026-05-08 07:44 | 20.27813 | 76.56988 | 35579 ft | 459 kts | 69° |
| 2026-05-08 07:44 | 20.28920 | 76.60115 | 35334 ft | 460 kts | 69° |
| 2026-05-08 07:45 | 20.30057 | 76.63331 | 35082 ft | 461 kts | 69° |
| 2026-05-08 07:45 | 20.31164 | 76.66464 | 34937 ft | 461 kts | 69° |
| 2026-05-08 07:45 | 20.32273 | 76.69619 | 34932 ft | 462 kts | 69° |
| 2026-05-08 07:46 | 20.34506 | 76.75970 | 34929 ft | 462 kts | 69° |
| 2026-05-08 07:46 | 20.36739 | 76.82314 | 34927 ft | 462 kts | 70° |
| 2026-05-08 07:47 | 20.38773 | 76.88801 | 34909 ft | 456 kts | 72° |
| 2026-05-08 07:47 | 20.39726 | 76.91959 | 34677 ft | 448 kts | 72° |
| 2026-05-08 07:47 | 20.40669 | 76.95087 | 34120 ft | 446 kts | 72° |
| 2026-05-08 07:47 | 20.41622 | 76.98248 | 33369 ft | 449 kts | 71° |
| 2026-05-08 07:48 | 20.42581 | 77.01427 | 32700 ft | 448 kts | 71° |
| 2026-05-08 07:48 | 20.43535 | 77.04588 | 32236 ft | 443 kts | 71° |
| 2026-05-08 07:48 | 20.44462 | 77.07664 | 31769 ft | 439 kts | 71° |
| 2026-05-08 07:48 | 20.45348 | 77.10601 | 31286 ft | 435 kts | 71° |
| 2026-05-08 07:49 | 20.46300 | 77.13762 | 30755 ft | 432 kts | 71° |
| 2026-05-08 07:49 | 20.47201 | 77.16750 | 30252 ft | 428 kts | 71° |
| 2026-05-08 07:49 | 20.48117 | 77.19795 | 29741 ft | 425 kts | 71° |
| 2026-05-08 07:49 | 20.49013 | 77.22774 | 29240 ft | 422 kts | 71° |
| 2026-05-08 07:50 | 20.49910 | 77.25761 | 28737 ft | 418 kts | 71° |
| 2026-05-08 07:50 | 20.50799 | 77.28722 | 28236 ft | 415 kts | 71° |
| 2026-05-08 07:50 | 20.51654 | 77.31570 | 27751 ft | 412 kts | 71° |
| 2026-05-08 07:50 | 20.52521 | 77.34462 | 27259 ft | 409 kts | 71° |
| 2026-05-08 07:51 | 20.53386 | 77.37353 | 26947 ft | 404 kts | 71° |
| 2026-05-08 07:51 | 20.54245 | 77.40220 | 26909 ft | 406 kts | 71° |
| 2026-05-08 07:51 | 20.55137 | 77.43132 | 26905 ft | 407 kts | 70° |
| 2026-05-08 07:51 | 20.56063 | 77.45966 | 26770 ft | 409 kts | 70° |
| 2026-05-08 07:52 | 20.57009 | 77.48820 | 26209 ft | 408 kts | 70° |
| 2026-05-08 07:52 | 20.57944 | 77.51643 | 25747 ft | 405 kts | 70° |
| 2026-05-08 07:52 | 20.58879 | 77.54479 | 25308 ft | 401 kts | 70° |
| 2026-05-08 07:52 | 20.59799 | 77.57278 | 24880 ft | 397 kts | 70° |
| 2026-05-08 07:53 | 20.60704 | 77.60038 | 24461 ft | 393 kts | 70° |
| 2026-05-08 07:53 | 20.61594 | 77.62757 | 24045 ft | 390 kts | 70° |
| 2026-05-08 07:53 | 20.62464 | 77.65419 | 23640 ft | 386 kts | 70° |
| 2026-05-08 07:53 | 20.63344 | 77.68126 | 23228 ft | 383 kts | 70° |
| 2026-05-08 07:54 | 20.64218 | 77.70817 | 22816 ft | 379 kts | 70° |
| 2026-05-08 07:54 | 20.65094 | 77.73508 | 22400 ft | 376 kts | 70° |
| 2026-05-08 07:54 | 20.65944 | 77.76121 | 21993 ft | 373 kts | 70° |
| 2026-05-08 07:54 | 20.66804 | 77.78760 | 21581 ft | 371 kts | 70° |
| 2026-05-08 07:55 | 20.67642 | 77.81335 | 21179 ft | 368 kts | 70° |
| 2026-05-08 07:55 | 20.68502 | 77.83944 | 20766 ft | 365 kts | 69° |
| 2026-05-08 07:55 | 20.69461 | 77.86468 | 20358 ft | 362 kts | 65° |
| 2026-05-08 07:55 | 20.70487 | 77.88918 | 19962 ft | 359 kts | 65° |
| 2026-05-08 07:56 | 20.71516 | 77.91346 | 19563 ft | 357 kts | 65° |
| 2026-05-08 07:56 | 20.72543 | 77.93765 | 19161 ft | 354 kts | 65° |
| 2026-05-08 07:56 | 20.73543 | 77.96126 | 18768 ft | 352 kts | 65° |
| 2026-05-08 07:56 | 20.74558 | 77.98525 | 18365 ft | 349 kts | 65° |
| 2026-05-08 07:57 | 20.75552 | 78.00879 | 17969 ft | 346 kts | 65° |
| 2026-05-08 07:57 | 20.76554 | 78.03255 | 17567 ft | 344 kts | 65° |
| 2026-05-08 07:57 | 20.77533 | 78.05575 | 17173 ft | 342 kts | 65° |
| 2026-05-08 07:57 | 20.78505 | 78.07883 | 16780 ft | 339 kts | 65° |
| 2026-05-08 07:58 | 20.79487 | 78.10213 | 16381 ft | 337 kts | 65° |
| 2026-05-08 07:58 | 20.80440 | 78.12479 | 15990 ft | 335 kts | 65° |
| 2026-05-08 07:58 | 20.81401 | 78.14763 | 15596 ft | 333 kts | 65° |
| 2026-05-08 07:58 | 20.82348 | 78.17016 | 15207 ft | 331 kts | 65° |
| 2026-05-08 07:59 | 20.83289 | 78.19255 | 14819 ft | 328 kts | 65° |
| 2026-05-08 07:59 | 20.84231 | 78.21497 | 14430 ft | 326 kts | 65° |
| 2026-05-08 07:59 | 20.85176 | 78.23745 | 14038 ft | 324 kts | 65° |
| 2026-05-08 07:59 | 20.86066 | 78.25866 | 13665 ft | 323 kts | 65° |
| 2026-05-08 08:00 | 20.86982 | 78.28050 | 13285 ft | 321 kts | 65° |
| 2026-05-08 08:00 | 20.87889 | 78.30212 | 12905 ft | 319 kts | 65° |
| 2026-05-08 08:00 | 20.88799 | 78.32383 | 12523 ft | 317 kts | 65° |
| 2026-05-08 08:00 | 20.89693 | 78.34518 | 12146 ft | 315 kts | 65° |
| 2026-05-08 08:01 | 20.90592 | 78.36663 | 11765 ft | 313 kts | 65° |
| 2026-05-08 08:01 | 20.91490 | 78.38809 | 11387 ft | 311 kts | 65° |
| 2026-05-08 08:01 | 20.92371 | 78.40914 | 10949 ft | 311 kts | 65° |
| 2026-05-08 08:01 | 20.93267 | 78.43055 | 10156 ft | 322 kts | 65° |
| 2026-05-08 08:02 | 20.94196 | 78.45276 | 9272 ft | 334 kts | 65° |
| 2026-05-08 08:02 | 20.95172 | 78.47607 | 8328 ft | 345 kts | 65° |
| 2026-05-08 08:02 | 20.96145 | 78.49934 | 7360 ft | 356 kts | 66° |
| 2026-05-08 08:02 | 20.97027 | 78.52045 | 6461 ft | 364 kts | 66° |
| 2026-05-08 08:03 | 20.98079 | 78.54564 | 5392 ft | 373 kts | 66° |
| 2026-05-08 08:03 | 20.99122 | 78.57061 | 4622 ft | 372 kts | 66° |
| 2026-05-08 08:03 | 21.00160 | 78.59551 | 3991 ft | 367 kts | 66° |
| 2026-05-08 08:03 | 21.01181 | 78.62000 | 3334 ft | 363 kts | 66° |
| 2026-05-08 08:04 | 21.02206 | 78.64460 | 2957 ft | 351 kts | 66° |
| 2026-05-08 08:04 | 21.03187 | 78.66821 | 2708 ft | 336 kts | 66° |
| 2026-05-08 08:04 | 21.04122 | 78.69080 | 2475 ft | 323 kts | 66° |
| 2026-05-08 08:04 | 21.05019 | 78.71246 | 2308 ft | 308 kts | 66° |
| 2026-05-08 08:05 | 21.05867 | 78.73291 | 2293 ft | 290 kts | 66° |
| 2026-05-08 08:05 | 21.06661 | 78.75206 | 2287 ft | 272 kts | 67° |
| 2026-05-08 08:05 | 21.07412 | 78.77015 | 2286 ft | 264 kts | 67° |
| 2026-05-08 08:05 | 21.08168 | 78.78835 | 2287 ft | 266 kts | 67° |
| 2026-05-08 08:06 | 21.08920 | 78.80651 | 2289 ft | 266 kts | 67° |
| 2026-05-08 08:06 | 21.09673 | 78.82469 | 2289 ft | 266 kts | 67° |
| 2026-05-08 08:06 | 21.10417 | 78.84256 | 2284 ft | 256 kts | 67° |
| 2026-05-08 08:06 | 21.11129 | 78.85940 | 2282 ft | 240 kts | 67° |
| 2026-05-08 08:07 | 21.11802 | 78.87535 | 2286 ft | 233 kts | 67° |
| 2026-05-08 08:07 | 21.12457 | 78.89105 | 2287 ft | 233 kts | 68° |
| 2026-05-08 08:07 | 21.13133 | 78.90729 | 2288 ft | 233 kts | 68° |
| 2026-05-08 08:07 | 21.13791 | 78.92318 | 2289 ft | 233 kts | 68° |
| 2026-05-08 08:08 | 21.14444 | 78.93894 | 2289 ft | 233 kts | 68° |
| 2026-05-08 08:08 | 21.15116 | 78.95518 | 2289 ft | 233 kts | 68° |
| 2026-05-08 08:08 | 21.15767 | 78.97090 | 2289 ft | 233 kts | 68° |
| 2026-05-08 08:08 | 21.16403 | 78.98692 | 2286 ft | 232 kts | 75° |
| 2026-05-08 08:09 | 21.16424 | 79.00382 | 2277 ft | 229 kts | 112° |
| 2026-05-08 08:09 | 21.15448 | 79.01676 | 2286 ft | 229 kts | 151° |
| 2026-05-08 08:09 | 21.13972 | 79.02280 | 2300 ft | 230 kts | 161° |
| 2026-05-08 08:09 | 21.12458 | 79.02881 | 2245 ft | 230 kts | 157° |
| 2026-05-08 08:10 | 21.11003 | 79.03574 | 1981 ft | 228 kts | 154° |
| 2026-05-08 08:10 | 21.09592 | 79.04289 | 1642 ft | 215 kts | 154° |
| 2026-05-08 08:10 | 21.08274 | 79.04952 | 1470 ft | 198 kts | 154° |
| 2026-05-08 08:10 | 21.07173 | 79.05499 | 2126 ft | 160 kts | 155° |
| 2026-05-08 08:11 | 21.06125 | 79.06014 | 2436 ft | 169 kts | 155° |
| 2026-05-08 08:11 | 21.05054 | 79.06535 | 2889 ft | 167 kts | 154° |
| 2026-05-08 08:11 | 21.03993 | 79.07055 | 3284 ft | 169 kts | 153° |
| 2026-05-08 08:11 | 21.02823 | 79.07604 | 3318 ft | 195 kts | 156° |
| 2026-05-08 08:12 | 21.01444 | 79.08020 | 3395 ft | 217 kts | 168° |
| 2026-05-08 08:12 | 20.99968 | 79.08231 | 3519 ft | 195 kts | 169° |
| 2026-05-08 08:12 | 20.98843 | 79.08784 | 3469 ft | 170 kts | 130° |
| 2026-05-08 08:12 | 20.98611 | 79.09905 | 3098 ft | 159 kts | 68° |
| 2026-05-08 08:13 | 20.99475 | 79.10572 | 2633 ft | 163 kts | 2° |
| 2026-05-08 08:13 | 21.00467 | 79.10066 | 2345 ft | 164 kts | 316° |
| 2026-05-08 08:13 | 21.01173 | 79.09078 | 2287 ft | 166 kts | 310° |
| 2026-05-08 08:13 | 21.02067 | 79.08308 | 2296 ft | 164 kts | 339° |
| 2026-05-08 08:14 | 21.03182 | 79.08042 | 2315 ft | 162 kts | 358° |
| 2026-05-08 08:14 | 21.04316 | 79.08034 | 2209 ft | 162 kts | 2° |
| 2026-05-08 08:14 | 21.05427 | 79.07843 | 1875 ft | 164 kts | 335° |
| 2026-05-08 08:14 | 21.06300 | 79.07082 | 1638 ft | 164 kts | 316° |
| 2026-05-08 08:15 | 21.07202 | 79.06315 | 1427 ft | 165 kts | 327° |
| 2026-05-08 08:15 | 21.08150 | 79.05612 | 1194 ft | 163 kts | 323° |
| 2026-05-08 08:15 | 21.09057 | 79.04868 | 1039 ft | 160 kts | 325° |
| 2026-05-08 08:15 | 21.09849 | 79.04253 | 1037 ft | 117 kts | 323° |
| 2026-05-08 08:16 | 21.10375 | 79.03834 | 1046 ft | 66 kts | 325° |
| 2026-05-08 08:16 | 21.10643 | 79.03624 | 1050 ft | 41 kts | 323° |
| 2026-05-08 08:16 | 21.10843 | 79.03457 | 1050 ft | 19 kts | 305° |
| 2026-05-08 08:16 | 21.10828 | 79.03336 | 1052 ft | 14 kts | 239° |
| 2026-05-08 08:17 | 21.10766 | 79.03333 | 1052 ft | 8 kts | 136° |
| 2026-05-08 08:17 | 21.10736 | 79.03365 | 1052 ft | 0 kts | 136° |